Etusivu
METAR-TAF:

METAR-TAF

Lentoasemat :

Clayton, New Mexico, Yhdysvallat

Leveyspiiri: 36-26-54N, Pituuspiiri: 103-09-11W, korkeus merenpinnasta: 1513 m

Tämänhetkinen sää

Tämä raportti tehtiin 19 minuuttia sitten, kello 15.48 UTC
Tuuli 9 kn idästä/kaakosta
Lämpötila -7°C
Kosteus 93%
Ilmanpaine 1010 hPa
Näkyvyys: 2.0 km
Pilvistä 600 ft:n korkeudessa
heikkoa lumisadetta, utua

METAR: KCAO 261548Z AUTO 11009KT 1 1/4SM -SN BR OVC006 M07/M08 A2982 RMK AO2 P0000 T10671078

Aika: 09:07 (16:07 UTC)


TAF: puuttuu

Säähavainnot ja -ennusteet yli 4000 lentoasemalta (METAR- ja TAF-raportit).

Käytössä olevat sääasemat on merkitty karttaan keltaisilla ja punaisilla pisteillä.

Aseta hiiri pisteen päälle nähdäksesi sääaseman nimen.

Klikkaa sitten nähdäksesi säähavainnot ja -ennusteet.

Kartan vaihtaminen: klikkaa mustalla rastilla varustettuja vihreitä pisteitä, niin voit zoomata sisään; viivalla varustettua vihreää pistettä, niin voit zoomata ulos tai vihreitä nuolia, niin pääset viereisille kartoille.


METAR-TAF: